Time;durP1;ratioP1;P1;durP2;ratioP2;P2;SDS_P1;SDS_P2;PMS_P1;PMS_P2;Temp;Humidity;BMP_temperature;BMP_pressure;BME280_temperature;BME280_humidity;BME280_pressure;Samples;Min_cycle;Max_cycle;Signal;HPM_P1;HPM_P2
2022/09/18 00:02:26;;;;;;;7.60;3.60;;;;;;;13.65;79.12;97390.40;104902;1274;76723;-21
2022/09/18 00:04:53;;;;;;;6.80;4.10;;;;;;;12.94;82.03;97377.43;104993;1272;76743;-21
2022/09/18 00:07:20;;;;;;;4.50;3.40;;;;;;;12.55;84.24;97371.52;105042;1272;74361;-21
2022/09/18 00:09:47;;;;;;;6.40;2.40;;;;;;;12.48;85.09;97363.30;104599;1273;61157;-23
2022/09/18 00:12:14;;;;;;;3.30;2.30;;;;;;;12.90;84.28;97360.20;104587;1272;62829;-21
2022/09/18 00:14:41;;;;;;;5.90;3.30;;;;;;;13.38;81.60;97352.78;104613;1271;76526;-21
2022/09/18 00:17:08;;;;;;;5.40;3.60;;;;;;;13.31;80.92;97349.11;104937;1274;76114;-21
2022/09/18 00:19:35;;;;;;;5.60;3.70;;;;;;;12.93;82.72;97341.75;104636;1274;75454;-21
2022/09/18 00:22:02;;;;;;;6.80;3.60;;;;;;;12.71;83.72;97338.44;104680;1274;61833;-21
2022/09/18 00:24:30;;;;;;;4.00;3.00;;;;;;;12.29;85.87;97327.50;104690;1273;61914;-22
2022/09/18 00:26:57;;;;;;;4.20;3.00;;;;;;;12.57;85.79;97320.98;104779;1271;75274;-22
2022/09/18 00:29:24;;;;;;;4.80;3.30;;;;;;;12.77;84.70;97313.77;104677;1274;76967;-22
2022/09/18 00:31:51;;;;;;;5.50;4.40;;;;;;;12.68;84.60;97314.53;104636;1273;73439;-22
2022/09/18 00:34:19;;;;;;;8.10;3.80;;;;;;;12.49;85.94;97317.05;104618;1274;63159;-22
2022/09/18 00:36:46;;;;;;;6.20;4.00;;;;;;;12.45;85.91;97318.05;104566;1274;61877;-22
2022/09/18 00:39:13;;;;;;;4.50;2.90;;;;;;;12.36;86.88;97319.58;104789;1274;75905;-22
2022/09/18 00:41:41;;;;;;;4.90;2.90;;;;;;;12.90;84.57;97320.34;104663;1271;75219;-22
2022/09/18 00:44:32;;;;;;;7.10;3.30;;;;;;;13.21;82.74;97317.30;104561;1274;75368;-22
2022/09/18 00:47:09;;;;;;;4.10;3.50;;;;;;;13.20;82.31;97317.15;104641;1274;61732;-23
2022/09/18 00:50:01;;;;;;;4.70;4.20;;;;;;;12.93;83.21;97309.89;104611;1271;63117;-22
2022/09/18 00:52:32;;;;;;;6.40;3.90;;;;;;;12.57;85.11;97302.50;104943;1274;76521;-23
2022/09/18 00:55:09;;;;;;;5.50;2.70;;;;;;;12.41;86.02;97297.63;104678;1274;76226;-22
2022/09/18 00:57:40;;;;;;;3.90;3.00;;;;;;;12.82;84.88;97290.42;104656;1272;74420;-21
2022/09/18 01:00:10;;;;;;;5.70;4.00;;;;;;;13.07;83.26;97282.69;104592;1274;63039;-23
2022/09/18 01:02:39;;;;;;;5.10;3.90;;;;;;;12.96;83.62;97279.06;104689;1274;61036;-23
2022/09/18 01:05:07;;;;;;;5.50;4.40;;;;;;;12.73;84.42;97277.06;104908;1274;75508;-20
2022/09/18 01:07:51;;;;;;;9.40;4.90;;;;;;;12.43;85.80;97277.98;104578;1274;77346;-20
2022/09/18 01:10:45;;;;;;;6.70;2.50;;;;;;;12.40;86.43;97270.47;104607;1274;74182;-22
2022/09/18 01:13:38;;;;;;;4.60;3.10;;;;;;;13.21;84.40;97265.17;104110;1274;61170;-23
2022/09/18 01:16:09;;;;;;;5.80;4.40;;;;;;;13.62;81.03;97259.27;104642;1274;62037;-23
2022/09/18 01:18:48;;;;;;;5.40;4.00;;;;;;;13.37;81.26;97248.84;104409;1274;76408;-23
2022/09/18 01:21:16;;;;;;;6.80;5.10;;;;;;;12.98;82.71;97249.70;104612;1274;75897;-23
2022/09/18 01:24:15;;;;;;;8.90;6.30;;;;;;;12.43;85.17;97251.55;104445;1274;75190;-22
2022/09/18 01:26:51;;;;;;;5.10;3.90;;;;;;;12.04;88.08;97245.06;104598;1274;64696;-23
2022/09/18 01:29:31;;;;;;;8.70;4.70;;;;;;;12.38;86.48;97239.74;104528;1274;60995;-22
2022/09/18 01:32:17;;;;;;;7.00;5.10;;;;;;;12.57;85.69;97239.59;104654;1274;76570;-20
2022/09/18 01:34:54;;;;;;;7.60;5.80;;;;;;;12.32;86.21;97240.77;104714;1273;75973;-22
2022/09/18 01:37:30;;;;;;;6.00;5.00;;;;;;;12.01;88.07;97241.92;104644;1274;74301;-20
2022/09/18 01:40:16;;;;;;;5.00;3.80;;;;;;;12.06;88.40;97247.52;104642;1271;61764;-20
2022/09/18 01:42:45;;;;;;;6.40;4.90;;;;;;;12.45;86.43;97247.43;104629;1274;62028;-20
2022/09/18 01:45:19;;;;;;;6.90;5.60;;;;;;;12.42;86.01;97240.93;104350;1274;76412;-22
2022/09/18 01:47:59;;;;;;;6.60;5.70;;;;;;;12.06;87.61;97235.20;104648;1274;77065;-22
2022/09/18 01:50:31;;;;;;;5.70;4.10;;;;;;;11.89;88.58;97230.08;104621;1272;73263;-20
2022/09/18 01:53:23;;;;;;;6.30;4.90;;;;;;;12.30;87.25;97230.38;104564;1274;61993;-20
2022/09/18 01:55:55;;;;;;;8.30;5.00;;;;;;;12.47;86.00;97226.06;104716;1274;61688;-21
2022/09/18 01:58:23;;;;;;;8.00;4.90;;;;;;;12.16;86.90;97224.37;104411;1274;74513;-20
2022/09/18 02:00:54;;;;;;;6.80;6.00;;;;;;;11.83;88.73;97219.20;104397;1274;77050;-20
2022/09/18 02:03:37;;;;;;;4.80;3.90;;;;;;;11.76;89.83;97217.52;104618;1274;74381;-20
2022/09/18 02:06:20;;;;;;;7.00;4.80;;;;;;;11.90;88.71;97214.40;104293;1274;63125;-20
2022/09/18 02:08:53;;;;;;;6.00;5.40;;;;;;;11.86;88.96;97208.60;104538;1274;62868;-20
2022/09/18 02:11:21;;;;;;;6.20;5.50;;;;;;;11.77;89.63;97204.78;104613;1274;75490;-21
2022/09/18 02:14:08;;;;;;;7.50;4.30;;;;;;;11.59;90.71;97198.98;104619;1274;76022;-22
2022/09/18 02:17:20;;;;;;;5.20;4.60;;;;;;;11.95;88.52;97190.95;104452;1274;75836;-20
2022/09/18 02:20:00;;;;;;;7.60;5.30;;;;;;;11.90;88.82;97186.83;104599;1274;63183;-20
2022/09/18 02:22:29;;;;;;;7.50;5.20;;;;;;;11.81;89.22;97173.38;104374;1277;62012;-21
2022/09/18 02:24:59;;;;;;;4.70;4.20;;;;;;;11.63;90.64;97172.48;104448;1274;74829;-22
2022/09/18 02:27:26;;;;;;;6.90;5.80;;;;;;;11.74;90.37;97165.83;104547;1274;76740;-22
2022/09/18 02:29:55;;;;;;;6.50;5.80;;;;;;;11.68;90.10;97155.77;104637;1274;74374;-21
2022/09/18 02:32:22;;;;;;;7.30;5.30;;;;;;;11.65;90.59;97154.58;104365;1274;61903;-21
2022/09/18 02:34:49;;;;;;;5.80;5.20;;;;;;;11.51;90.91;97147.58;104565;1274;62043;-21
2022/09/18 02:37:29;;;;;;;6.50;4.20;;;;;;;11.59;91.42;97152.73;104541;1274;76564;-21
2022/09/18 02:40:24;;;;;;;7.10;4.80;;;;;;;11.95;89.06;97155.71;104457;1273;75984;-22
2022/09/18 02:43:14;;;;;;;8.10;6.30;;;;;;;11.76;89.40;97150.69;104596;1274;75565;-21
2022/09/18 02:46:01;;;;;;;6.50;5.50;;;;;;;11.54;91.01;97153.22;104507;1274;61940;-20
2022/09/18 02:48:34;;;;;;;7.70;5.40;;;;;;;11.63;90.83;97152.84;104360;1273;62108;-20
2022/09/18 02:51:24;;;;;;;8.60;5.20;;;;;;;11.72;90.49;97161.09;104334;1274;76359;-21
2022/09/18 02:54:30;;;;;;;6.30;5.40;;;;;;;11.77;89.53;97161.33;104608;1274;75448;-21
2022/09/18 02:57:05;;;;;;;8.50;5.00;;;;;;;11.48;91.31;97155.45;104620;1274;75664;-20
2022/09/18 02:59:38;;;;;;;5.50;4.50;;;;;;;11.74;90.62;97152.81;104589;1274;64376;-20
2022/09/18 03:02:06;;;;;;;7.00;5.20;;;;;;;11.76;89.82;97144.47;104437;1274;63097;-19
2022/09/18 03:04:36;;;;;;;7.50;5.70;;;;;;;11.78;89.33;97136.43;104595;1273;76796;-20
2022/09/18 03:07:06;;;;;;;9.20;6.50;;;;;;;11.63;90.88;97129.09;104637;1274;75828;-20
2022/09/18 03:09:39;;;;;;;6.20;5.10;;;;;;;11.35;92.18;97126.52;104730;1274;73293;-19
2022/09/18 03:12:07;;;;;;;5.70;4.90;;;;;;;11.51;92.29;97112.36;104577;1274;63020;-22
2022/09/18 03:14:38;;;;;;;6.80;5.90;;;;;;;11.60;91.47;97097.56;104598;1274;61788;-21
2022/09/18 03:17:05;;;;;;;6.90;6.20;;;;;;;11.57;91.53;97086.09;104673;1274;75517;-22
2022/09/18 03:19:32;;;;;;;5.80;4.20;;;;;;;11.42;92.77;97085.96;104966;1274;75908;-21
2022/09/18 03:22:01;;;;;;;7.70;5.20;;;;;;;11.70;91.42;97087.26;104712;1274;75442;-21
2022/09/18 03:24:30;;;;;;;7.90;6.00;;;;;;;11.81;90.52;97084.45;104602;1274;61154;-21
2022/09/18 03:26:57;;;;;;;6.90;5.50;;;;;;;11.57;91.37;97079.80;104608;1274;63364;-21
2022/09/18 03:29:26;;;;;;;7.70;6.80;;;;;;;11.49;92.46;97073.31;104700;1274;76314;-21
2022/09/18 03:31:54;;;;;;;7.60;4.90;;;;;;;11.39;93.43;97074.34;104670;1274;76138;-21
2022/09/18 03:34:21;;;;;;;5.80;4.80;;;;;;;11.70;92.03;97080.14;104650;1274;74461;-21
2022/09/18 03:36:49;;;;;;;7.10;6.00;;;;;;;11.65;91.41;97087.26;104665;1274;61742;-21
2022/09/18 03:39:17;;;;;;;8.90;6.20;;;;;;;11.42;92.79;97095.75;104660;1273;61163;-21
2022/09/18 03:41:45;;;;;;;4.90;4.30;;;;;;;11.49;92.53;97098.53;104538;1274;76605;-21
2022/09/18 03:44:12;;;;;;;6.50;4.90;;;;;;;11.73;92.08;97092.61;104586;1273;75980;-21
2022/09/18 03:46:41;;;;;;;5.50;4.80;;;;;;;11.86;90.23;97084.44;104623;1274;74263;-21
2022/09/18 03:49:08;;;;;;;8.10;5.90;;;;;;;11.94;89.74;97088.73;104654;1274;62018;-21
2022/09/18 03:51:37;;;;;;;5.60;4.80;;;;;;;11.74;90.73;97088.48;104656;1274;61967;-21
2022/09/18 03:54:05;;;;;;;4.80;4.30;;;;;;;11.50;92.35;97078.41;104612;1274;75638;-21
2022/09/18 03:56:47;;;;;;;7.80;6.10;;;;;;;11.68;91.43;97075.09;104645;1274;76175;-21
2022/09/18 03:59:35;;;;;;;7.90;5.80;;;;;;;11.56;92.02;97074.48;104562;1274;74436;-21
2022/09/18 04:02:12;;;;;;;6.50;5.20;;;;;;;11.48;92.83;97072.45;104606;1274;61901;-21
2022/09/18 04:04:57;;;;;;;10.00;6.30;;;;;;;11.53;92.63;97070.80;104704;1274;61787;-21
2022/09/18 04:07:51;;;;;;;6.80;5.10;;;;;;;11.70;91.66;97069.34;104601;1274;76567;-21
2022/09/18 04:10:56;;;;;;;10.30;6.60;;;;;;;11.61;91.62;97064.09;104610;1273;76961;-21
2022/09/18 04:13:24;;;;;;;5.80;4.90;;;;;;;11.42;93.13;97053.98;104556;1274;75174;-20
2022/09/18 04:15:51;;;;;;;5.20;4.40;;;;;;;11.43;93.09;97046.17;104620;1273;62347;-20
2022/09/18 04:18:18;;;;;;;6.30;5.70;;;;;;;11.81;91.27;97047.86;104610;1274;62764;-21
2022/09/18 04:20:45;;;;;;;6.70;5.50;;;;;;;11.44;92.24;97049.36;104626;1273;76698;-20
2022/09/18 04:23:13;;;;;;;6.60;4.90;;;;;;;11.48;92.70;97041.34;104537;1274;75492;-20
2022/09/18 04:25:41;;;;;;;5.80;4.70;;;;;;;11.68;92.16;97030.27;104562;1274;75406;-20
2022/09/18 04:28:09;;;;;;;6.90;5.20;;;;;;;11.51;91.88;97024.49;104475;1274;63476;-21
2022/09/18 04:30:39;;;;;;;6.60;4.50;;;;;;;11.83;90.95;97018.88;104572;1274;62240;-20
2022/09/18 04:33:06;;;;;;;5.80;5.10;;;;;;;11.74;90.34;97015.64;104543;1274;76549;-20
2022/09/18 04:35:34;;;;;;;7.80;4.10;;;;;;;11.51;92.20;97014.76;104629;1274;75236;-20
2022/09/18 04:38:01;;;;;;;8.30;5.30;;;;;;;11.67;90.98;97012.99;104558;1274;74531;-20
2022/09/18 04:40:28;;;;;;;7.00;5.40;;;;;;;11.45;92.07;97004.50;104587;1274;62029;-20
2022/09/18 04:42:56;;;;;;;7.30;5.70;;;;;;;11.54;92.17;97003.21;104609;1274;61915;-20
2022/09/18 04:45:23;;;;;;;6.30;4.90;;;;;;;11.35;93.03;96998.71;104635;1274;75655;-20
2022/09/18 04:47:50;;;;;;;4.90;4.10;;;;;;;11.69;91.80;96996.45;104677;1274;75841;-20
2022/09/18 04:50:18;;;;;;;6.60;4.90;;;;;;;11.87;89.95;96996.61;104645;1274;75000;-20
2022/09/18 04:53:05;;;;;;;6.90;5.20;;;;;;;11.44;92.02;96993.70;104590;1274;62321;-20
2022/09/18 04:55:32;;;;;;;5.30;4.70;;;;;;;11.17;93.67;96991.26;104560;1274;62030;-20
2022/09/18 04:57:59;;;;;;;4.10;3.50;;;;;;;11.47;93.18;96986.64;104688;1274;76751;-20
2022/09/18 05:00:27;;;;;;;6.30;5.20;;;;;;;11.92;89.46;96986.56;104571;1274;76887;-20
2022/09/18 05:02:56;;;;;;;8.20;4.10;;;;;;;11.36;91.91;96983.85;104977;1274;74289;-20
2022/09/18 05:05:25;;;;;;;6.20;4.80;;;;;;;11.05;93.45;96982.56;104784;1274;62108;-20
2022/09/18 05:07:52;;;;;;;4.30;3.90;;;;;;;11.23;93.69;96982.04;104793;1274;62013;-21
2022/09/18 05:10:20;;;;;;;4.90;4.30;;;;;;;11.53;91.78;96976.77;104974;1274;75800;-20
2022/09/18 05:12:48;;;;;;;4.80;4.10;;;;;;;11.56;90.86;96978.55;104572;1273;75838;-20
2022/09/18 05:15:15;;;;;;;5.20;3.60;;;;;;;11.25;92.56;96975.86;104671;1274;75030;-20
2022/09/18 05:17:45;;;;;;;4.70;4.30;;;;;;;11.32;92.08;96965.81;104626;1274;63684;-20
2022/09/18 05:20:13;;;;;;;6.00;4.40;;;;;;;11.48;90.65;96960.88;104622;1274;61950;-20
2022/09/18 05:22:45;;;;;;;5.20;4.10;;;;;;;11.28;91.38;96965.77;104630;1274;76529;-20
2022/09/18 05:25:14;;;;;;;6.00;4.30;;;;;;;11.50;90.85;96956.48;104642;1274;77009;-20
2022/09/18 05:27:42;;;;;;;5.10;3.90;;;;;;;11.43;91.25;96953.57;104870;1274;75516;-20
2022/09/18 05:30:09;;;;;;;5.50;3.90;;;;;;;11.21;91.55;96943.86;103690;1274;1722855;-20
2022/09/18 05:32:57;;;;;;;4.30;3.90;;;;;;;11.31;91.87;96939.45;104583;1274;61821;-20
2022/09/18 05:35:27;;;;;;;4.90;4.40;;;;;;;11.46;90.82;96928.02;104388;1274;74522;-20
2022/09/18 05:37:54;;;;;;;5.20;4.60;;;;;;;11.16;91.75;96918.88;104463;1274;75785;-20
2022/09/18 05:40:24;;;;;;;3.90;3.60;;;;;;;11.28;92.11;96909.89;104597;1274;75683;-20
2022/09/18 05:42:52;;;;;;;4.60;4.00;;;;;;;11.30;92.24;96897.15;104401;1274;63385;-20
2022/09/18 05:45:20;;;;;;;4.40;4.00;;;;;;;11.53;90.61;96873.44;104636;1274;61801;-20
2022/09/18 05:47:58;;;;;;;5.40;4.10;;;;;;;11.05;92.73;96848.89;104616;1274;76576;-20
2022/09/18 05:50:26;;;;;;;5.90;3.40;;;;;;;10.84;93.39;96836.38;104490;1274;75564;-22
2022/09/18 05:53:01;;;;;;;4.20;3.70;;;;;;;11.08;92.41;96840.59;104588;1274;74362;-22
2022/09/18 05:55:34;;;;;;;4.80;4.10;;;;;;;11.08;92.17;96842.37;104356;1272;62298;-23
2022/09/18 05:58:02;;;;;;;4.80;3.90;;;;;;;10.94;92.81;96842.83;104648;1274;62764;-23
2022/09/18 06:00:31;;;;;;;3.40;2.50;;;;;;;10.85;93.80;96841.77;104442;1274;76633;-23
2022/09/18 06:03:08;;;;;;;4.10;3.50;;;;;;;11.21;92.28;96855.80;104560;1273;77422;-23
2022/09/18 06:05:38;;;;;;;4.30;3.80;;;;;;;11.09;91.70;96856.31;104417;1274;75419;-22
2022/09/18 06:08:07;;;;;;;7.60;4.20;;;;;;;11.04;92.41;96852.53;104645;1275;63087;-23
2022/09/18 06:10:38;;;;;;;5.70;3.60;;;;;;;10.83;93.72;96846.70;104589;1274;63111;-23
2022/09/18 06:13:11;;;;;;;4.30;3.70;;;;;;;10.95;93.14;96846.22;104619;1274;76549;-23
2022/09/18 06:15:46;;;;;;;4.40;4.00;;;;;;;11.12;91.99;96844.29;104631;1274;75962;-23
2022/09/18 06:18:13;;;;;;;6.40;4.50;;;;;;;11.23;91.69;96846.90;104363;1274;73986;-23
2022/09/18 06:20:41;;;;;;;6.20;4.10;;;;;;;10.80;93.09;96843.46;104592;1274;64674;-23
2022/09/18 06:23:08;;;;;;;5.20;4.40;;;;;;;11.00;92.67;96845.08;104657;1274;61981;-23
2022/09/18 06:25:56;;;;;;;4.70;3.30;;;;;;;10.96;91.59;96831.69;104610;1274;76583;-23
2022/09/18 06:28:23;;;;;;;6.00;4.90;;;;;;;10.86;91.91;96823.80;104614;1274;75922;-23
2022/09/18 06:30:50;;;;;;;5.50;4.30;;;;;;;10.74;92.67;96826.99;104623;1274;75493;-23
2022/09/18 06:33:19;;;;;;;6.90;5.10;;;;;;;10.91;91.89;96829.33;104842;1274;61941;-23
2022/09/18 06:35:48;;;;;;;6.20;5.00;;;;;;;10.95;91.11;96833.48;104663;1274;62771;-23
2022/09/18 06:38:21;;;;;;;7.90;6.00;;;;;;;10.83;91.58;96837.20;104636;1274;76068;-23
2022/09/18 06:40:50;;;;;;;6.00;4.30;;;;;;;10.79;91.84;96834.64;104671;1274;75933;-23
2022/09/18 06:43:24;;;;;;;4.20;3.30;;;;;;;10.87;90.96;96829.73;104639;1274;75443;-23
2022/09/18 06:46:09;;;;;;;5.90;4.90;;;;;;;10.82;91.38;96826.75;104683;1274;61884;-23
2022/09/18 06:48:40;;;;;;;7.50;5.80;;;;;;;10.77;91.35;96824.20;104879;1274;61968;-23
2022/09/18 06:51:08;;;;;;;4.60;4.00;;;;;;;10.62;92.08;96831.85;104622;1273;75236;-23
2022/09/18 06:53:57;;;;;;;7.00;4.90;;;;;;;10.81;90.78;96841.07;104958;1274;76983;-23
2022/09/18 06:56:25;;;;;;;6.30;4.90;;;;;;;11.03;90.01;96839.54;104720;1274;75421;-23
2022/09/18 06:58:52;;;;;;;5.50;5.00;;;;;;;10.81;90.07;96834.69;104634;1274;63427;-23
2022/09/18 07:01:19;;;;;;;4.70;3.70;;;;;;;10.80;90.90;96833.73;104579;1274;62997;-23
2022/09/18 07:03:48;;;;;;;4.50;4.10;;;;;;;10.91;90.53;96829.08;104649;1274;74386;-23
2022/09/18 07:06:21;;;;;;;4.60;3.70;;;;;;;10.71;90.15;96820.20;104673;1274;75946;-23
2022/09/18 07:08:49;;;;;;;6.10;4.50;;;;;;;10.65;91.55;96816.16;104641;1274;74330;-23
2022/09/18 07:11:28;;;;;;;5.10;4.10;;;;;;;10.52;92.15;96812.27;104592;1274;61858;-23
2022/09/18 07:13:58;;;;;;;4.70;4.20;;;;;;;10.45;92.81;96810.83;104831;1274;61895;-23
2022/09/18 07:16:25;;;;;;;4.80;3.60;;;;;;;10.51;93.11;96813.30;104582;1274;76609;-23
2022/09/18 07:18:52;;;;;;;5.30;4.60;;;;;;;10.63;92.76;96816.73;104640;1275;77000;-23
2022/09/18 07:21:20;;;;;;;3.70;2.80;;;;;;;10.37;93.80;96810.23;104619;1274;75384;-23
2022/09/18 07:23:46;;;;;;;3.60;3.20;;;;;;;10.59;92.82;96807.88;104584;1274;61685;-23
2022/09/18 07:26:14;;;;;;;6.30;4.40;;;;;;;10.46;93.16;96803.48;104623;1274;63554;-23
2022/09/18 07:28:45;;;;;;;4.40;4.00;;;;;;;10.37;94.37;96799.98;104641;1274;76583;-23
2022/09/18 07:31:21;;;;;;;3.80;3.40;;;;;;;10.48;94.46;96802.56;104667;1274;77312;-23
2022/09/18 07:33:50;;;;;;;3.90;3.10;;;;;;;10.54;94.28;96794.68;104607;1274;74165;-22
2022/09/18 07:36:17;;;;;;;4.50;3.70;;;;;;;10.49;94.09;96778.32;104391;1277;63183;-23
2022/09/18 07:38:51;;;;;;;4.90;3.80;;;;;;;10.44;94.80;96783.64;104669;1274;62795;-23
2022/09/18 07:41:19;;;;;;;4.30;4.00;;;;;;;10.46;95.09;96784.64;104390;1274;76394;-23
2022/09/18 07:43:50;;;;;;;3.00;2.70;;;;;;;10.65;93.73;96779.73;104658;1274;75933;-23
2022/09/18 07:46:17;;;;;;;5.80;4.60;;;;;;;10.59;93.89;96769.03;104598;1274;75438;-23
2022/09/18 07:48:46;;;;;;;6.50;4.50;;;;;;;10.56;93.81;96776.85;104601;1274;61866;-23
2022/09/18 07:51:23;;;;;;;6.70;5.00;;;;;;;10.46;94.47;96779.33;104635;1274;62021;-23
2022/09/18 07:53:53;;;;;;;6.20;4.50;;;;;;;10.72;93.67;96786.90;104681;1275;76608;-23
2022/09/18 07:56:28;;;;;;;8.70;4.40;;;;;;;10.53;93.37;96778.52;104614;1274;77334;-23
2022/09/18 07:58:55;;;;;;;5.80;2.90;;;;;;;10.30;94.87;96773.33;104593;1276;75308;-23
2022/09/18 08:01:26;;;;;;;4.80;3.80;;;;;;;10.60;94.42;96769.73;104586;1274;64351;-23
2022/09/18 08:03:55;;;;;;;3.60;2.90;;;;;;;10.59;93.26;96758.23;104624;1274;62065;-23
2022/09/18 08:06:35;;;;;;;2.70;2.20;;;;;;;10.51;92.54;96748.23;104728;1274;76584;-23
2022/09/18 08:09:10;;;;;;;4.30;3.00;;;;;;;10.29;94.18;96751.79;104609;1274;77046;-23
2022/09/18 08:11:57;;;;;;;3.90;3.40;;;;;;;10.42;94.70;96750.36;104512;1274;75638;-23
2022/09/18 08:14:31;;;;;;;4.10;3.10;;;;;;;10.39;94.16;96749.47;104622;1274;62009;-23
2022/09/18 08:17:33;;;;;;;3.20;2.70;;;;;;;10.62;92.95;96753.38;104434;1274;63219;-23
2022/09/18 08:20:27;;;;;;;2.50;1.80;;;;;;;10.37;93.27;96746.38;104660;1274;76425;-23
2022/09/18 08:23:07;;;;;;;2.80;2.50;;;;;;;10.41;93.82;96751.30;104722;1274;76001;-23
2022/09/18 08:25:37;;;;;;;4.40;2.40;;;;;;;10.30;93.18;96740.43;104602;1274;73766;-21
2022/09/18 08:28:05;;;;;;;3.10;2.70;;;;;;;10.22;94.17;96731.59;104597;1274;61718;-21
2022/09/18 08:30:37;;;;;;;2.50;2.10;;;;;;;10.16;94.59;96713.95;104528;1274;63082;-21
2022/09/18 08:33:09;;;;;;;3.30;2.00;;;;;;;10.23;94.29;96705.80;104597;1274;76713;-21
2022/09/18 08:35:36;;;;;;;4.60;3.20;;;;;;;10.25;94.32;96697.34;104653;1274;74990;-21
2022/09/18 08:38:16;;;;;;;3.70;2.20;;;;;;;10.09;94.62;96682.04;104645;1274;73486;-21
2022/09/18 08:41:36;;;;;;;2.60;2.30;;;;;;;10.16;95.26;96681.19;104270;1277;62373;-21
2022/09/18 08:44:29;;;;;;;2.70;2.30;;;;;;;10.37;93.62;96677.52;104699;1274;62802;-23
2022/09/18 08:46:59;;;;;;;3.20;2.20;;;;;;;10.20;94.07;96672.94;104709;1274;75493;-20
2022/09/18 08:49:32;;;;;;;3.10;2.10;;;;;;;10.04;93.72;96670.83;104932;1274;75414;-23
2022/09/18 08:52:19;;;;;;;2.30;1.90;;;;;;;10.28;92.55;96667.28;104725;1274;74813;-22
2022/09/18 08:55:05;;;;;;;2.40;2.20;;;;;;;10.22;93.66;96669.52;104742;1274;63037;-22
2022/09/18 08:57:48;;;;;;;2.20;1.80;;;;;;;10.23;93.62;96667.27;104788;1274;61791;-22
2022/09/18 09:00:51;;;;;;;2.10;1.90;;;;;;;10.37;93.69;96664.36;104637;1274;76560;-22
2022/09/18 09:03:52;;;;;;;2.20;2.00;;;;;;;10.30;92.72;96664.12;104665;1274;75981;-22
2022/09/18 09:06:50;;;;;;;1.60;1.00;;;;;;;10.24;93.99;96667.64;104620;1274;74510;-22
2022/09/18 09:09:29;;;;;;;1.70;1.50;;;;;;;10.50;92.89;96668.91;104465;1274;62226;-22
2022/09/18 09:12:28;;;;;;;3.00;1.80;;;;;;;10.68;91.22;96664.03;104573;1274;61919;-22
2022/09/18 09:15:17;;;;;;;2.30;1.80;;;;;;;10.36;92.32;96661.98;104478;1274;76799;-22
2022/09/18 09:17:52;;;;;;;;;;;;;;;10.01;93.74;96660.51;104655;1274;75948;-22
2022/09/18 09:20:32;;;;;;;2.10;1.70;;;;;;;10.16;93.95;96660.58;104664;1274;74180;-22
2022/09/18 09:23:00;;;;;;;2.10;1.80;;;;;;;9.97;94.21;96656.14;104660;1274;62891;-21
2022/09/18 09:25:38;;;;;;;1.60;1.40;;;;;;;10.13;94.20;96665.90;104715;1274;63128;-21
2022/09/18 09:28:42;;;;;;;2.50;1.20;;;;;;;10.17;93.88;96670.31;104634;1274;75884;-21
2022/09/18 09:31:40;;;;;;;3.90;1.50;;;;;;;10.29;92.94;96679.80;104605;1274;75945;-21
2022/09/18 09:34:43;;;;;;;2.00;1.80;;;;;;;10.38;91.75;96689.42;104524;1274;73373;-21
2022/09/18 09:37:38;;;;;;;3.40;1.80;;;;;;;10.01;92.91;96692.98;104595;1274;62983;-22
2022/09/18 09:40:22;;;;;;;2.10;1.70;;;;;;;10.01;93.68;96691.90;104466;1274;62924;-23
2022/09/18 09:43:32;;;;;;;1.80;1.70;;;;;;;10.36;91.80;96701.56;104544;1274;76680;-23
2022/09/18 09:46:03;;;;;;;1.50;1.40;;;;;;;10.31;91.15;96707.23;104585;1275;75860;-23
2022/09/18 09:48:55;;;;;;;2.10;1.90;;;;;;;10.45;91.42;96715.69;104525;1274;75720;-23
2022/09/18 09:51:45;;;;;;;2.30;1.40;;;;;;;10.42;90.75;96712.30;104641;1274;62229;-23
2022/09/18 09:54:12;;;;;;;1.90;1.10;;;;;;;10.88;89.59;96716.86;104615;1274;63263;-23
2022/09/18 09:56:56;;;;;;;1.40;1.00;;;;;;;11.11;87.40;96714.61;104634;1273;75560;-23
2022/09/18 09:59:37;;;;;;;1.10;0.90;;;;;;;10.93;87.36;96708.62;104358;1274;76029;-23
2022/09/18 10:03:08;;;;;;;2.20;1.70;;;;;;;10.27;89.86;96711.41;104772;1272;74439;-23
2022/09/18 10:05:50;;;;;;;5.10;3.00;;;;;;;10.14;91.22;96713.33;104637;1274;62074;-23
2022/09/18 10:08:30;;;;;;;6.00;3.10;;;;;;;10.27;90.25;96719.09;104789;1277;62763;-23
2022/09/18 10:10:59;;;;;;;2.70;2.20;;;;;;;10.42;90.11;96719.66;104680;1274;75476;-23
2022/09/18 10:13:32;;;;;;;2.40;1.60;;;;;;;10.31;90.20;96724.55;104481;1274;76992;-23
2022/09/18 10:16:02;;;;;;;1.70;0.80;;;;;;;10.14;90.94;96722.72;104265;1274;75137;-23
2022/09/18 10:18:31;;;;;;;1.90;1.30;;;;;;;10.64;88.75;96719.65;104614;1271;63102;-23
2022/09/18 10:21:26;;;;;;;1.50;1.10;;;;;;;10.66;87.93;96722.90;104559;1271;63583;-23
2022/09/18 10:24:22;;;;;;;3.00;1.80;;;;;;;10.26;88.79;96723.20;104677;1274;75589;-23
2022/09/18 10:27:02;;;;;;;1.20;0.80;;;;;;;9.95;91.37;96725.05;104628;1275;76731;-23
2022/09/18 10:29:29;;;;;;;1.80;1.20;;;;;;;10.59;88.67;96728.40;104416;1271;73439;-23
2022/09/18 10:32:03;;;;;;;2.20;1.20;;;;;;;10.80;87.23;96728.52;104894;1274;62022;-23
2022/09/18 10:34:48;;;;;;;2.80;1.30;;;;;;;10.38;87.33;96733.22;104694;1274;61698;-23
2022/09/18 10:37:27;;;;;;;3.40;1.00;;;;;;;10.13;89.01;96741.39;104695;1271;75576;-23
2022/09/18 10:40:00;;;;;;;1.30;0.90;;;;;;;9.93;89.90;96742.92;105023;1274;76764;-24
2022/09/18 10:42:31;;;;;;;1.40;0.90;;;;;;;10.13;88.54;96738.35;104517;1272;74042;-24
2022/09/18 10:45:30;;;;;;;1.10;0.90;;;;;;;10.03;88.65;96744.55;104496;1274;61828;-24
2022/09/18 10:48:15;;;;;;;1.20;0.90;;;;;;;10.09;89.00;96744.78;104417;1273;62199;-24
2022/09/18 10:50:56;;;;;;;1.10;1.00;;;;;;;9.64;89.78;96749.50;104353;1277;75611;-22
2022/09/18 10:53:33;;;;;;;3.20;0.90;;;;;;;9.91;89.62;96746.87;104614;1274;77207;-22
2022/09/18 10:56:19;;;;;;;1.70;0.80;;;;;;;10.22;87.52;96749.00;104482;1272;74127;-22
2022/09/18 10:58:48;;;;;;;1.10;1.00;;;;;;;10.17;87.64;96748.45;104389;1275;62022;-21
2022/09/18 11:01:16;;;;;;;2.30;1.20;;;;;;;9.96;88.82;96746.44;104532;1274;62985;-21
2022/09/18 11:04:00;;;;;;;3.80;0.80;;;;;;;9.74;89.24;96741.30;104608;1274;76797;-21
2022/09/18 11:06:30;;;;;;;1.00;0.70;;;;;;;9.66;88.36;96739.98;104558;1274;75988;-21
2022/09/18 11:09:08;;;;;;;1.50;0.80;;;;;;;9.78;88.02;96738.61;104591;1275;73238;-22
2022/09/18 11:11:37;;;;;;;1.30;0.90;;;;;;;9.56;88.81;96742.60;104347;1274;61786;-21
2022/09/18 11:14:22;;;;;;;1.90;1.30;;;;;;;9.44;89.63;96744.19;104433;1275;63091;-22
2022/09/18 11:16:56;;;;;;;1.70;1.10;;;;;;;9.34;90.23;96741.98;104564;1274;74436;-21
2022/09/18 11:19:30;;;;;;;0.90;0.80;;;;;;;9.56;89.50;96739.39;104498;1274;77162;-21
2022/09/18 11:22:04;;;;;;;1.70;0.80;;;;;;;9.69;89.07;96737.20;104366;1275;73555;-21
2022/09/18 11:24:37;;;;;;;1.20;0.90;;;;;;;9.73;89.28;96740.02;104458;1272;62893;-22
2022/09/18 11:27:22;;;;;;;1.40;1.20;;;;;;;9.57;90.20;96746.48;104556;1275;61217;-22
2022/09/18 11:29:52;;;;;;;2.70;1.40;;;;;;;10.01;88.65;96740.50;104471;1274;75384;-21
2022/09/18 11:32:25;;;;;;;1.40;0.90;;;;;;;10.15;87.47;96740.05;104651;1275;76460;-21
2022/09/18 11:34:57;;;;;;;0.80;0.60;;;;;;;9.94;87.54;96742.29;104546;1274;74517;-22
2022/09/18 11:37:36;;;;;;;1.90;1.20;;;;;;;9.43;89.00;96742.05;104684;1271;61654;-21
2022/09/18 11:40:06;;;;;;;1.50;0.80;;;;;;;9.33;89.93;96752.38;104741;1274;61020;-21
2022/09/18 11:42:43;;;;;;;1.60;0.70;;;;;;;9.65;88.37;96762.83;104694;1271;75537;-22
2022/09/18 11:45:33;;;;;;;3.10;1.00;;;;;;;9.53;88.07;96762.38;104626;1274;75877;-21
2022/09/18 11:48:10;;;;;;;1.30;0.80;;;;;;;9.46;88.90;96762.89;104391;1277;74309;-22
2022/09/18 11:50:37;;;;;;;2.30;1.20;;;;;;;9.27;89.90;96760.89;104599;1276;61998;-22
2022/09/18 11:53:11;;;;;;;2.10;1.10;;;;;;;9.38;89.98;96762.02;104341;1274;63038;-22
2022/09/18 11:56:09;;;;;;;4.00;1.10;;;;;;;9.73;88.44;96759.60;104627;1274;76716;-22
2022/09/18 11:58:48;;;;;;;1.70;0.90;;;;;;;9.70;88.55;96767.92;104560;1274;76394;-22
2022/09/18 12:01:34;;;;;;;2.20;0.80;;;;;;;9.55;89.43;96761.60;104330;1277;75354;-22
2022/09/18 12:04:23;;;;;;;1.10;0.80;;;;;;;9.47;89.68;96752.02;104604;1274;63481;-21
2022/09/18 12:06:52;;;;;;;0.70;0.70;;;;;;;9.81;88.27;96760.11;104636;1274;62034;-21